• Join FlightAware (Why Join?)
  • Login
  • US Flag 
04:06PM EST


 

Airport Tracker/Info


-or-


 

Live Flight TrackerFlight Track Log ✈ N2201 ✈ 14-Oct-2013 ✈ KALB - KLDJ

Flight Track Log - Related Links

Times and Time Zones

All times are in EDT time to prevent confusion due to time zone crossing. See the N2201 flight status page for this flight to view local times or setup timezone preferences in your user account.

Time Position Orientation Groundspeed Altitude Reporting Facility
EDT Latitude Longitude Course Direction KTS MPH feet Rate Location/Type
04:30PM 42.7611 -73.8089 336° Northwest 85 98 800  Level Boston Center
04:30PM 42.7756 -73.8175 336° Northwest 88 101 1,400 600 Climbing Boston Center
04:32PM 42.7564 -73.8397 220° Southwest 113 130 2,000 540 Climbing Boston Center
04:33PM 42.7292 -73.8589 207° Southwest 116 133 2,500 480 Climbing Boston Center
04:34PM 42.7019 -73.8753 204° Southwest 111 128 3,000 480 Climbing Boston Center
04:35PM 42.6725 -73.8944 206° Southwest 112 129 3,500 480 Climbing Boston Center
04:36PM 42.6472 -73.9164 213° Southwest 111 128 4,000 540 Climbing Boston Center
04:36PM 42.6219 -73.9297 201° Southwest 105 121 4,600 540 Climbing Boston Center
04:38PM 42.5947 -73.9489 207° Southwest 99 114 5,200 480 Climbing Boston Center
04:39PM 42.5653 -73.9653 202° Southwest 105 121 5,700 420 Climbing Boston Center
04:40PM 42.5378 -73.9869 210° Southwest 112 129 6,200 420 Climbing Boston Center
04:41PM 42.5083 -74.0031 202° Southwest 115 132 6,600 420 Climbing Boston Center
04:42PM 42.4769 -74.0250 207° Southwest 116 133 7,100 420 Climbing Boston Center
04:43PM 42.4494 -74.0439 207° Southwest 116 133 7,500 360 Climbing Boston Center
04:44PM 42.4222 -74.0628 207° Southwest 115 132 7,900 120 Climbing Boston Center
04:46PM 42.3592 -74.1033 205° Southwest 143 165 8,000  Climbing Boston Center
04:47PM 42.3211 -74.1278 205° Southwest 153 176 8,000  Level Boston Center
04:48PM 42.2853 -74.1492 204° Southwest 162 186 8,000  Level Boston Center
04:49PM 42.2475 -74.1761 208° Southwest 157 181 8,000  Level Boston Center
04:50PM 42.2117 -74.2006 207° Southwest 151 174 8,000  Level Boston Center
04:51PM 42.1758 -74.2275 209° Southwest 151 174 8,000  Level Boston Center
04:52PM 42.1400 -74.2544 209° Southwest 158 182 8,000  Level Boston Center
04:53PM 42.1000 -74.2814 207° Southwest 158 182 8,000  Level Boston Center
04:54PM 42.0661 -74.3083 211° Southwest 158 182 8,000  Level Boston Center
04:55PM 42.0303 -74.3350 209° Southwest 158 182 8,000  Level Boston Center
04:56PM 41.9922 -74.3592 205° Southwest 158 182 8,000  Level Boston Center
04:57PM 41.9586 -74.3861 211° Southwest 158 182 8,000  Level Boston Center
04:58PM 41.9183 -74.4128 206° Southwest 158 182 8,000  Level Boston Center
04:59PM 41.8847 -74.4367 208° Southwest 158 182 8,000  Level Boston Center
05:00PM 41.8467 -74.4661 210° Southwest 158 182 8,000  Level Boston Center
05:02PM 41.7747 -74.5167 208° Southwest 158 182 8,000  Level Boston Center
05:03PM 41.7392 -74.5294 195° South 153 176 8,000  Level Boston Center
05:04PM 41.6911 -74.5392 189° South 153 176 8,000  Level Boston Center
05:05PM 41.6533 -74.5489 191° South 153 176 8,000 -480 Level Boston Center
05:06PM 41.6031 -74.5583 188° South 165 190 7,100 -660 Descending Boston Center
05:07PM 41.5592 -74.5653 187° South 171 197 6,700 -540 Descending Boston Center
05:08PM 41.5050 -74.5744 187° South 178 205 6,100 -240 Descending Boston Center
05:09PM 41.4167 -74.6000 192° South 160 184 6,000 -60 Descending New York TRACON
05:10PM 41.3833 -74.6000 180° South 156 180 6,000  Level New York TRACON
05:11PM 41.3333 -74.6167 194° South 155 178 6,000  Level New York TRACON
05:12PM 41.3000 -74.6167 180° South 154 177 6,000  Level New York TRACON
05:13PM 41.2667 -74.5833 143° Southeast 152 175 6,000 -120 Level New York TRACON
05:14PM 41.2167 -74.5667 166° South 157 181 5,800 -360 Descending New York TRACON
05:15PM 41.1833 -74.5500 159° South 167 192 5,300 -720 Descending New York TRACON
05:16PM 41.1333 -74.5167 153° Southeast 178 205 4,400 -840 Descending New York TRACON
05:17PM 41.0833 -74.5000 166° South 165 190 3,700 -660 Descending New York TRACON
05:18PM 41.0500 -74.4667 143° Southeast 156 180 3,100 -360 Descending New York TRACON
05:19PM 41.0167 -74.4500 159° South 150 173 3,000 -60 Descending New York TRACON
05:20PM 40.9667 -74.4333 166° South 150 173 3,000  Level New York TRACON
05:22PM 40.9333 -74.4167 159° South 150 173 3,000  Level New York TRACON
05:23PM 40.8833 -74.4000 166° South 146 168 3,000  Level New York TRACON
05:24PM 40.8500 -74.3833 159° South 143 165 3,000  Level New York TRACON
05:24PM 40.8167 -74.3667 159° South 141 162 3,000  Level New York TRACON